createdAt,value
2018-10-12T04:00:10.560Z,44.73
2018-10-12T04:02:38.750Z,49.50
2018-10-12T04:05:06.812Z,53.48
2018-10-12T04:07:34.952Z,51.37
2018-10-12T04:10:03.067Z,49.30
2018-10-12T04:12:31.232Z,53.02
2018-10-12T04:14:59.452Z,56.05
2018-10-12T04:17:27.597Z,58.80
2018-10-12T04:19:57.491Z,56.23
2018-10-12T04:22:26.304Z,58.17
2018-10-12T04:24:54.570Z,53.27
2018-10-12T04:27:22.707Z,48.03
2018-10-12T04:29:50.819Z,54.23
2018-10-12T04:32:18.943Z,49.17
2018-10-12T04:34:47.647Z,45.87
2018-10-12T04:37:17.060Z,45.88
2018-10-12T04:39:53.373Z,45.67
2018-10-12T04:42:21.499Z,48.28
2018-10-12T04:44:49.675Z,47.63
2018-10-12T04:47:18.069Z,46.47
2018-10-12T04:49:46.387Z,44.87
2018-10-12T04:52:15.107Z,46.60
2018-10-12T04:54:43.307Z,43.97
2018-10-12T04:57:16.360Z,42.27
2018-10-12T04:59:45.027Z,39.50
2018-10-12T05:02:13.123Z,39.43
2018-10-12T05:04:41.568Z,42.10
2018-10-12T05:07:09.699Z,39.07
2018-10-12T05:09:37.867Z,41.20
2018-10-12T05:12:07.468Z,42.50
2018-10-12T05:14:37.735Z,43.25
2018-10-12T05:17:06.715Z,41.30
2018-10-12T05:19:35.159Z,40.33
2018-10-12T05:22:03.308Z,42.40
2018-10-12T05:24:31.328Z,40.63
2018-10-12T05:26:59.507Z,42.30
2018-10-12T05:29:28.156Z,40.37
2018-10-12T05:31:56.816Z,42.08
2018-10-12T05:34:25.214Z,40.93
2018-10-12T05:36:53.319Z,43.55
2018-10-12T05:39:21.415Z,43.93
2018-10-12T05:41:49.535Z,45.83
2018-10-12T05:44:17.708Z,41.70
2018-10-12T05:46:46.795Z,42.00
2018-10-12T05:49:26.403Z,46.90
2018-10-12T05:51:54.764Z,46.00
2018-10-12T05:54:22.990Z,48.40
2018-10-12T05:56:53.077Z,46.40
2018-10-12T05:59:21.241Z,38.05
2018-10-12T06:01:49.436Z,38.50
2018-10-12T06:04:17.580Z,38.43
2018-10-12T06:06:46.068Z,37.27
2018-10-12T06:09:14.172Z,36.93
2018-10-12T06:11:42.346Z,36.77
2018-10-12T06:14:10.499Z,36.43
2018-10-12T06:16:38.672Z,42.90
2018-10-12T06:19:06.796Z,36.33
2018-10-12T06:21:34.958Z,35.63
2018-10-12T06:24:02.984Z,30.90
2018-10-12T06:26:31.075Z,31.95
2018-10-12T06:28:59.668Z,33.53
2018-10-12T06:31:29.198Z,33.73
2018-10-12T06:33:59.514Z,33.20
2018-10-12T06:36:27.824Z,32.33
2018-10-12T06:38:56.012Z,29.47
2018-10-12T06:41:24.287Z,31.80
2018-10-12T06:43:52.431Z,33.45
2018-10-12T06:46:20.603Z,29.90
2018-10-12T06:48:48.744Z,30.55
2018-10-12T06:51:16.895Z,32.73
2018-10-12T06:53:46.848Z,30.20
2018-10-12T06:56:15.262Z,32.20
2018-10-12T06:58:43.395Z,32.37
2018-10-12T07:01:11.512Z,34.90
2018-10-12T07:03:40.195Z,31.47
2018-10-12T07:06:07.751Z,33.45
2018-10-12T07:08:35.940Z,32.93
2018-10-12T07:11:04.425Z,32.83
2018-10-12T07:13:32.487Z,31.57
2018-10-12T07:16:02.194Z,29.55
2018-10-12T07:18:30.283Z,28.00
2018-10-12T07:20:58.424Z,31.90
2018-10-12T07:23:26.511Z,30.10
2018-10-12T07:25:55.743Z,34.63
2018-10-12T07:28:23.795Z,28.00
2018-10-12T07:30:51.875Z,30.10
2018-10-12T07:33:19.975Z,30.47
2018-10-12T07:35:48.062Z,28.12
2018-10-12T07:38:17.131Z,25.80
2018-10-12T07:40:45.257Z,24.83
2018-10-12T07:43:13.389Z,25.57
2018-10-12T07:45:41.481Z,27.27
2018-10-12T07:48:09.721Z,26.57
2018-10-12T07:50:37.763Z,25.27
2018-10-12T07:53:06.174Z,29.20
2018-10-12T07:55:34.263Z,26.50
2018-10-12T07:58:02.378Z,24.07
2018-10-12T08:00:30.707Z,25.63
2018-10-12T08:02:58.744Z,26.63
2018-10-12T08:05:26.819Z,26.80
2018-10-12T08:07:55.084Z,26.27
2018-10-12T08:10:23.158Z,26.93
2018-10-12T08:12:51.252Z,29.45
2018-10-12T08:15:19.343Z,26.67
2018-10-12T08:17:47.475Z,26.43
2018-10-12T08:20:16.545Z,26.47
2018-10-12T08:22:44.671Z,25.03
2018-10-12T08:25:12.751Z,25.03
2018-10-12T08:27:40.879Z,26.10
2018-10-12T08:30:16.529Z,27.10
2018-10-12T08:32:44.599Z,24.73
2018-10-12T08:35:12.684Z,26.77
2018-10-12T08:37:40.865Z,24.67
2018-10-12T08:40:08.931Z,25.17
2018-10-12T08:42:37.019Z,24.10
2018-10-12T08:45:07.308Z,24.75
2018-10-12T08:47:35.625Z,27.17
2018-10-12T08:50:04.182Z,25.00
2018-10-12T08:52:32.250Z,26.50
2018-10-12T08:55:00.793Z,26.47
2018-10-12T08:57:28.879Z,24.80
2018-10-12T08:59:57.100Z,22.97
2018-10-12T09:02:25.676Z,20.72
2018-10-12T09:04:53.804Z,18.90
2018-10-12T09:07:23.156Z,21.20
2018-10-12T09:09:51.436Z,19.57
2018-10-12T09:12:19.519Z,19.53
2018-10-12T09:14:47.623Z,21.93
2018-10-12T09:17:15.915Z,22.87
2018-10-12T09:19:44.047Z,20.40
2018-10-12T09:22:14.360Z,20.03
2018-10-12T09:24:42.636Z,20.17
2018-10-12T09:29:40.316Z,18.45
2018-10-12T09:32:08.403Z,16.93
2018-10-12T09:34:36.643Z,15.73
2018-10-12T09:37:04.775Z,13.00
2018-10-12T09:39:32.844Z,12.60
2018-10-12T09:42:00.964Z,12.18
2018-10-12T09:44:31.303Z,14.23
2018-10-12T09:46:59.431Z,11.28
2018-10-12T09:49:27.662Z,15.47
2018-10-12T09:52:07.803Z,17.73
2018-10-12T09:54:36.281Z,16.87
2018-10-12T09:57:09.739Z,14.10
2018-10-12T09:59:37.855Z,13.00
2018-10-12T10:02:11.532Z,16.67
2018-10-12T10:04:44.563Z,12.80
2018-10-12T10:07:16.923Z,12.43
2018-10-12T10:09:45.067Z,11.33
2018-10-12T10:12:13.170Z,10.53
2018-10-12T10:14:41.332Z,13.40
2018-10-12T10:17:10.531Z,13.93
2018-10-12T10:19:38.623Z,14.30
2018-10-12T10:22:06.783Z,15.73
2018-10-12T10:24:35.155Z,13.93
2018-10-12T10:27:03.337Z,14.27
2018-10-12T10:29:32.135Z,11.80
2018-10-12T10:32:00.228Z,13.53
2018-10-12T10:34:30.866Z,17.35
2018-10-12T10:36:58.960Z,17.13
2018-10-12T10:39:41.352Z,11.60
2018-10-12T10:42:09.432Z,11.60
2018-10-12T10:44:37.520Z,11.85
2018-10-12T10:47:06.256Z,12.83
2018-10-12T10:49:37.339Z,13.98
2018-10-12T10:52:06.476Z,13.43
2018-10-12T10:54:34.572Z,13.20
2018-10-12T10:57:21.580Z,14.07
2018-10-12T10:59:50.259Z,13.68
2018-10-12T11:02:18.724Z,13.63
2018-10-12T11:04:48.159Z,13.53
2018-10-12T11:07:24.148Z,13.27
2018-10-12T11:09:52.340Z,13.27
2018-10-12T11:12:26.803Z,15.43
2018-10-12T11:14:56.303Z,16.10
2018-10-12T11:17:24.520Z,15.73
2018-10-12T11:19:52.865Z,17.73
2018-10-12T11:22:21.283Z,16.03
2018-10-12T11:24:49.524Z,16.03
2018-10-12T11:27:18.133Z,16.27
2018-10-12T11:29:46.376Z,17.17
2018-10-12T11:32:14.888Z,15.23
2018-10-12T11:34:43.008Z,16.93
2018-10-12T11:37:12.501Z,18.93
2018-10-12T11:39:41.780Z,14.80
2018-10-12T11:42:09.915Z,16.97
2018-10-12T11:44:40.133Z,19.13
2018-10-12T11:47:09.347Z,17.63
2018-10-12T11:49:38.535Z,14.00
2018-10-12T11:52:06.869Z,17.50
2018-10-12T11:54:34.961Z,11.57
2018-10-12T11:57:03.058Z,30.17
2018-10-12T11:59:31.188Z,18.23
2018-10-12T12:01:59.961Z,11.87
2018-10-12T12:04:29.294Z,13.40
2018-10-12T12:06:57.382Z,11.80
2018-10-12T12:09:26.999Z,11.53
2018-10-12T12:11:55.153Z,13.53
2018-10-12T12:14:23.488Z,22.63
2018-10-12T12:16:51.596Z,16.20
2018-10-12T12:19:20.126Z,14.13
2018-10-12T12:21:48.143Z,16.00
2018-10-12T12:24:16.348Z,12.30
2018-10-12T12:26:45.139Z,14.53
2018-10-12T12:29:13.201Z,20.60
2018-10-12T12:31:42.340Z,9.73
2018-10-12T12:34:10.572Z,14.87
2018-10-12T12:36:38.650Z,13.60
2018-10-12T12:39:08.206Z,11.20
2018-10-12T12:41:36.999Z,12.47
2018-10-12T12:44:05.424Z,10.80
2018-10-12T12:46:33.539Z,11.90
2018-10-12T12:49:03.008Z,10.90
2018-10-12T12:51:33.133Z,17.37
2018-10-12T12:56:49.139Z,9.10
2018-10-12T12:59:17.236Z,11.43
2018-10-12T13:01:45.454Z,8.20
2018-10-12T13:04:14.533Z,13.37
2018-10-12T13:06:42.667Z,11.17
2018-10-12T13:09:12.121Z,12.47
2018-10-12T13:11:40.440Z,20.93
2018-10-12T13:14:08.688Z,11.47
2018-10-12T13:16:36.799Z,10.37
2018-10-12T13:19:04.905Z,12.83
2018-10-12T13:21:33.051Z,9.08
2018-10-12T13:24:01.224Z,13.40
2018-10-12T13:26:29.327Z,8.85
2018-10-12T13:28:57.452Z,8.27
2018-10-12T13:31:27.133Z,10.90
2018-10-12T13:33:56.068Z,10.20
2018-10-12T13:36:24.651Z,10.33
2018-10-12T13:38:52.772Z,6.37
2018-10-12T13:41:34.512Z,9.70
2018-10-12T13:44:02.680Z,6.63
2018-10-12T13:46:30.882Z,9.87
2018-10-12T13:48:58.991Z,7.77
2018-10-12T13:51:27.116Z,9.27
2018-10-12T13:53:55.287Z,13.97
2018-10-12T13:56:23.604Z,7.13
2018-10-12T13:58:51.775Z,8.25
2018-10-12T14:01:19.931Z,7.77
2018-10-12T14:03:49.142Z,12.68
2018-10-12T14:06:17.295Z,6.87
2018-10-12T14:08:45.736Z,13.33
2018-10-12T14:11:13.830Z,6.83
2018-10-12T14:13:42.508Z,6.00
2018-10-12T14:16:16.683Z,7.72
2018-10-12T14:18:45.054Z,7.37
2018-10-12T14:21:15.388Z,8.13
2018-10-12T14:23:45.484Z,5.83
2018-10-12T14:26:13.732Z,8.08
2018-10-12T14:28:41.827Z,6.53
2018-10-12T14:31:10.695Z,5.92
2018-10-12T14:33:38.979Z,6.27
2018-10-12T14:36:08.424Z,5.07
2018-10-12T14:38:36.633Z,7.37
